Portada
METAR-TAF:

METAR-TAF

Aeroports :

Córdoba, Argentina

latitud: 31-19S, longitud: 064-13W, altitud: 484 m

Observació

L'informe es va fer fa 6 minuts, a les 05:00 UTC
Vent 7 kt del Nord/Nord-Oest
Temperatura 19°C
Humitat 78%
Pressió 1014 hPa
Visibilitat 10 km o més
sense núvols per sota de 1500 mi sense presència de cumulonimbus.

METAR: SACO 150500Z 33007KT CAVOK 19/15 Q1014

Hora: 02:06 (05:06 UTC)

Pronòstic

L'informe es va fer fa 6 hores i 6 minuts, a les 23:00 UTC
Pronòstic vàlid del 15 a les 00 UTC al 15 a les 24 UTC
Vent 5 kt del Sud/Sud-Oest
Visibilitat 10 km o més
Núvols disperses a una alçada de 3000 ft
Escasses núvols a una alçada de 4000 ft, Cumulonimbus.
Evolucionant progressivament
l' 15 a les 10 UTC al 15 a les 12 UTC
Vent 15 kt del Nord-Est
Visibilitat 10 km o més
Núvols disperses a una alçada de 3000 ft

TAF: SACO 142300Z 1500/1524 20005KT 9999 SCT030 FEW040CB TX34/1518Z TN18/1510Z BECMG 1510/1512 05015KT 9999 SCT030

Observacions i pronòstics meteorològics de més de 4000 aeroports (METAR i TAF).

Les estacions disponibles són els punts grocs i vermells al mapa.

Posi el ratolí al punt desitjat per veure el nom de l'estació.

Feu clic per veure les observacions i els pronòstics meteorològics.

Per canviar el mapa: feu clic els botons verds amb una creu de color negre per apropar; al botó verd amb un guió per allunyar la imatge; o en les fletxes verdes per a mapes adjacents.


METAR-TAF: